Time;durP1;ratioP1;P1;durP2;ratioP2;P2;SDS_P1;SDS_P2;PMS_P1;PMS_P2;Temp;Humidity;BMP_temperature;BMP_pressure;BME280_temperature;BME280_humidity;BME280_pressure;Samples;Min_cycle;Max_cycle;Signal;HPM_P1;HPM_P2
2022/12/21 00:01:14;;;;;;;;;10.25;10.25;;;;;11.52;85.15;100437.28;5051850;28;45790;-56
2022/12/21 00:03:40;;;;;;;;;10.40;9.60;;;;;12.24;85.04;100561.63;5051704;28;45540;-56
2022/12/21 00:06:05;;;;;;;;;10.60;10.20;;;;;12.28;84.84;100559.28;5050245;28;46231;-56
2022/12/21 00:08:35;;;;;;;;;12.00;8.00;;;;;12.28;84.74;100562.03;5051415;28;45541;-52
2022/12/21 00:11:01;;;;;;;;;11.00;9.40;;;;;12.05;84.75;100519.50;5051340;28;45554;-58
2022/12/21 00:13:26;;;;;;;;;10.00;9.00;;;;;12.28;84.90;100554.59;5049966;28;45564;-58
2022/12/21 00:15:59;;;;;;;;;11.50;10.50;;;;;12.27;84.78;100555.66;5050105;28;46178;-59
2022/12/21 00:18:25;;;;;;;;;11.00;10.00;;;;;12.28;84.86;100565.59;5048775;28;45797;-59
2022/12/21 00:21:04;;;;;;;;;9.75;9.75;;;;;12.26;84.72;100553.97;5051634;28;45458;-56
2022/12/21 00:23:30;;;;;;;;;11.20;10.40;;;;;12.26;84.83;100567.75;5051330;28;45415;-56
2022/12/21 00:25:57;;;;;;;;;8.75;6.50;;;;;11.92;84.63;100509.44;5051130;28;46139;-56
2022/12/21 00:28:22;;;;;;;;;9.00;8.40;;;;;12.25;84.70;100555.06;5032827;28;45545;-57
2022/12/21 00:30:48;;;;;;;;;10.00;9.75;;;;;12.29;84.90;100548.03;5050529;28;45654;-58
2022/12/21 00:33:13;;;;;;;;;5.75;5.75;;;;;12.31;84.93;100556.03;5050892;28;45435;-60
2022/12/21 00:35:39;;;;;;;;;10.00;9.00;;;;;12.31;84.75;100548.66;5051054;28;46057;-59
2022/12/21 00:38:05;;;;;;;;;8.00;8.00;;;;;12.28;84.89;100551.84;5050917;28;45433;-59
2022/12/21 00:40:30;;;;;;;;;10.25;7.00;;;;;12.31;84.86;100551.41;5050985;28;45711;-57
2022/12/21 00:42:56;;;;;;;;;12.00;10.75;;;;;12.23;84.80;100537.94;5052583;28;45477;-59
2022/12/21 00:45:21;;;;;;;;;13.75;9.00;;;;;12.33;84.72;100559.44;5053664;28;45506;-56
2022/12/21 00:47:47;;;;;;;;;10.00;10.00;;;;;12.33;85.00;100551.19;5053847;28;45401;-58
2022/12/21 00:50:13;;;;;;;;;7.75;7.75;;;;;12.01;84.84;100502.56;5053401;28;45388;-53
2022/12/21 00:52:38;;;;;;;;;9.50;7.50;;;;;12.34;84.58;100550.09;5053626;28;45330;-54
2022/12/21 00:55:04;;;;;;;;;8.75;8.75;;;;;12.35;85.03;100557.28;5047510;28;46557;-57
2022/12/21 00:57:30;;;;;;;;;11.00;8.75;;;;;12.36;84.82;100550.72;5048632;28;45676;-59
2022/12/21 00:59:55;;;;;;;;;10.75;9.25;;;;;12.36;84.90;100555.34;5051936;28;45432;-57
2022/12/21 01:02:20;;;;;;;;;9.50;9.50;;;;;12.27;84.89;100558.41;5054783;28;45428;-58
2022/12/21 01:04:46;;;;;;;;;8.25;8.25;;;;;12.37;85.06;100551.56;5053239;28;46243;-58
2022/12/21 01:07:12;;;;;;;;;11.25;10.25;;;;;12.39;84.88;100561.25;5055187;28;45344;-59
2022/12/21 01:09:37;;;;;;;;;10.75;9.00;;;;;12.40;85.04;100565.72;5053432;28;45500;-56
2022/12/21 01:12:03;;;;;;;;;10.00;8.50;;;;;12.38;85.41;100572.50;5055368;28;45415;-57
2022/12/21 01:14:28;;;;;;;;;7.75;7.75;;;;;12.38;85.03;100570.56;5054500;28;45405;-53
2022/12/21 01:16:54;;;;;;;;;8.25;8.25;;;;;12.31;85.60;100567.91;5054490;28;45320;-55
2022/12/21 01:19:20;;;;;;;;;9.50;8.00;;;;;12.35;85.43;100568.28;5054917;28;45398;-57
2022/12/21 01:21:46;;;;;;;;;8.20;6.40;;;;;12.15;85.66;100535.47;5056067;28;45357;-57
2022/12/21 01:24:12;;;;;;;;;7.50;6.75;;;;;12.34;85.51;100578.44;5058015;28;45353;-57
2022/12/21 01:26:37;;;;;;;;;8.00;8.00;;;;;12.32;85.60;100575.09;5056779;28;45484;-59
2022/12/21 01:29:03;;;;;;;;;11.00;10.00;;;;;12.35;85.61;100582.06;5058310;28;45329;-56
2022/12/21 01:31:28;;;;;;;;;9.00;7.50;;;;;12.22;85.15;100560.19;5057057;28;45555;-53
2022/12/21 01:33:54;;;;;;;;;5.75;5.50;;;;;12.32;85.10;100574.25;5056411;28;46133;-56
2022/12/21 01:36:20;;;;;;;;;7.25;5.00;;;;;12.38;85.30;100578.00;5058157;28;45186;-56
2022/12/21 01:38:46;;;;;;;;;10.00;8.00;;;;;12.38;84.82;100581.59;5057923;28;45801;-55
2022/12/21 01:41:22;;;;;;;;;6.80;6.80;;;;;12.38;84.89;100578.00;5058564;28;45279;-57
2022/12/21 01:43:58;;;;;;;;;8.20;6.40;;;;;12.34;84.98;100586.69;5039742;28;47522;-56
2022/12/21 01:46:32;;;;;;;;;9.40;8.00;;;;;12.34;84.93;100585.88;5039783;28;45415;-58
2022/12/21 01:49:04;;;;;;;;;6.60;5.00;;;;;12.33;84.78;100592.47;5057034;28;45454;-57
2022/12/21 01:51:31;;;;;;;;;7.20;6.00;;;;;12.30;84.69;100582.75;5057071;28;45700;-58
2022/12/21 01:54:00;;;;;;;;;5.00;5.00;;;;;12.36;84.93;100593.88;5039570;28;46299;-58
2022/12/21 01:56:29;;;;;;;;;6.20;6.20;;;;;12.36;84.58;100589.25;5057815;28;45450;-55
2022/12/21 01:58:55;;;;;;;;;10.60;7.20;;;;;12.39;84.82;100587.94;5056397;28;45423;-55
2022/12/21 02:01:21;;;;;;;;;6.25;6.25;;;;;12.20;84.65;100566.75;5057356;28;45481;-57
2022/12/21 02:03:49;;;;;;;;;4.75;4.00;;;;;12.37;84.64;100598.34;5057682;28;45698;-57
2022/12/21 02:06:38;;;;;;;;;8.80;5.60;;;;;12.07;84.37;100550.38;5039548;28;45477;-58
2022/12/21 02:09:03;;;;;;;;;5.80;5.60;;;;;12.36;84.30;100615.91;5056787;28;45392;-58
2022/12/21 02:11:29;;;;;;;;;5.00;5.00;;;;;12.26;84.07;100610.91;5039877;28;45353;-54
2022/12/21 02:13:54;;;;;;;;;4.00;4.00;;;;;12.26;83.25;100624.69;5056522;28;46403;-57
2022/12/21 02:16:24;;;;;;;;;5.00;4.00;;;;;12.22;82.31;100621.53;5057334;28;45307;-55
2022/12/21 02:19:13;;;;;;;;;3.60;3.00;;;;;12.21;82.56;100622.59;5056904;28;45450;-58
2022/12/21 02:21:52;;;;;;;;;5.60;4.00;;;;;12.09;81.11;100619.75;5060209;28;45455;-58
2022/12/21 02:24:55;;;;;;;;;3.00;3.00;;;;;12.04;81.76;100614.94;5057052;28;46682;-57
2022/12/21 02:27:40;;;;;;;;;4.40;3.00;;;;;11.96;81.17;100614.34;5057312;28;45184;-58
2022/12/21 02:30:22;;;;;;;;;1.00;1.00;;;;;11.88;81.28;100609.94;5056464;28;45424;-60
2022/12/21 02:32:59;;;;;;;;;5.00;4.60;;;;;11.86;81.75;100612.94;5038625;28;45618;-56
2022/12/21 02:35:40;;;;;;;;;3.60;3.60;;;;;11.85;81.71;100607.66;5055856;28;45705;-56
2022/12/21 02:38:15;;;;;;;;;3.80;3.40;;;;;11.79;80.53;100610.25;5055893;28;45570;-56
2022/12/21 02:41:12;;;;;;;;;4.00;2.60;;;;;11.73;80.71;100607.53;5057346;28;45539;-57
2022/12/21 02:46:34;;;;;;;;;3.00;2.00;;;;;11.64;81.28;100616.06;5056640;28;45561;-58
2022/12/21 02:49:08;;;;;;;;;1.20;1.20;;;;;11.47;80.25;100602.00;5057226;28;45316;-57
2022/12/21 02:51:41;;;;;;;;;3.00;3.00;;;;;11.51;80.64;100618.88;5038910;28;45334;-56
2022/12/21 02:54:06;;;;;;;;;4.20;2.60;;;;;11.41;80.54;100611.13;5039676;28;45534;-58
2022/12/21 02:56:32;;;;;;;;;2.50;1.25;;;;;11.37;80.76;100615.41;5038572;28;45533;-58
2022/12/21 02:58:58;;;;;;;;;4.25;2.50;;;;;11.37;80.67;100615.41;5056896;28;45375;-55
2022/12/21 03:01:50;;;;;;;;;1.25;1.25;;;;;11.33;80.83;100631.47;5056783;28;45419;-54
2022/12/21 03:04:27;;;;;;;;;3.60;2.40;;;;;11.15;80.87;100599.22;5056869;28;45447;-58
2022/12/21 03:07:03;;;;;;;;;1.60;1.60;;;;;11.24;81.53;100621.78;5061651;27;49221;-56
2022/12/21 03:09:50;;;;;;;;;4.20;1.80;;;;;11.22;81.20;100618.44;5038532;28;45355;-58
2022/12/21 03:12:25;;;;;;;;;1.00;1.00;;;;;11.28;81.15;100623.06;5040324;28;45396;-56
2022/12/21 03:15:12;;;;;;;;;5.80;3.00;;;;;11.20;80.57;100632.38;5056809;28;45325;-57
2022/12/21 03:17:53;;;;;;;;;1.80;1.80;;;;;11.13;80.45;100634.31;5055029;28;45530;-56
2022/12/21 03:20:30;;;;;;;;;1.80;1.00;;;;;11.14;80.39;100636.00;5056813;28;45300;-57
2022/12/21 03:23:03;;;;;;;;;1.00;1.00;;;;;11.12;80.71;100627.16;5056174;28;45380;-56
2022/12/21 03:25:46;;;;;;;;;0.00;0.00;;;;;11.00;80.29;100605.03;5055567;28;45323;-58
2022/12/21 03:28:14;;;;;;;;;1.00;1.00;;;;;11.17;79.93;100635.59;5055005;28;45836;-58
2022/12/21 03:30:42;;;;;;;;;2.20;2.00;;;;;11.12;79.87;100627.97;5037955;28;45428;-58
2022/12/21 03:33:09;;;;;;;;;2.00;1.00;;;;;11.18;79.91;100636.41;5056268;28;45468;-58
2022/12/21 03:35:38;;;;;;;;;1.20;1.20;;;;;11.15;79.50;100634.09;5038506;28;45550;-56
2022/12/21 03:38:07;;;;;;;;;2.00;1.00;;;;;11.16;80.20;100638.53;5038166;28;45760;-57
2022/12/21 03:40:33;;;;;;;;;0.00;0.00;;;;;11.18;79.47;100642.75;5054818;28;45330;-58
2022/12/21 03:42:59;;;;;;;;;2.40;1.40;;;;;11.21;79.33;100647.78;5055119;28;45412;-58
2022/12/21 03:45:35;;;;;;;;;2.00;1.00;;;;;11.22;79.58;100643.97;5056304;28;45674;-58
2022/12/21 03:48:10;;;;;;;;;2.00;1.00;;;;;11.27;79.56;100639.75;5038274;28;45427;-56
2022/12/21 03:50:38;;;;;;;;;2.00;1.60;;;;;11.30;79.42;100639.31;5055137;28;45494;-56
2022/12/21 03:53:34;;;;;;;;;1.40;0.60;;;;;11.31;79.30;100638.25;5054867;28;45241;-55
2022/12/21 03:56:01;;;;;;;;;1.00;1.00;;;;;11.32;79.26;100638.00;5055454;28;45249;-57
2022/12/21 03:58:26;;;;;;;;;0.80;0.80;;;;;11.28;78.89;100639.53;5037799;28;46434;-57
2022/12/21 04:00:56;;;;;;;;;1.00;1.00;;;;;11.29;78.63;100646.72;5071344;28;45257;-57
2022/12/21 04:03:24;;;;;;;;;0.00;0.00;;;;;11.03;78.50;100609.22;5056038;28;45431;-57
2022/12/21 04:05:54;;;;;;;;;0.00;0.00;;;;;11.24;78.10;100643.78;5054906;28;45494;-56
2022/12/21 04:08:20;;;;;;;;;0.00;0.00;;;;;11.24;78.57;100647.38;5038137;28;46272;-53
2022/12/21 04:10:47;;;;;;;;;0.60;0.00;;;;;10.81;77.95;100590.31;5055734;28;45415;-57
2022/12/21 04:13:13;;;;;;;;;0.40;0.40;;;;;11.19;77.74;100643.56;5055920;28;45368;-53
2022/12/21 04:21:07;;;;;;;;;0.00;0.00;;;;;11.19;77.48;100655.41;5055690;28;45341;-54
2022/12/21 04:29:00;;;;;;;;;0.00;0.00;;;;;11.20;77.32;100676.34;5054320;28;45799;-57
2022/12/21 04:31:26;;;;;;;;;1.00;1.00;;;;;11.20;77.50;100672.75;5055583;28;45398;-58
2022/12/21 04:33:51;;;;;;;;;1.50;1.50;;;;;11.22;77.71;100673.38;5055806;28;45488;-55
2022/12/21 04:39:00;;;;;;;;;0.80;0.80;;;;;11.12;77.18;100671.09;5055373;28;45439;-58
2022/12/21 04:41:26;;;;;;;;;0.00;0.00;;;;;11.09;77.66;100655.03;5055128;28;45463;-57
2022/12/21 04:43:51;;;;;;;;;1.00;1.00;;;;;11.10;77.96;100651.25;5055129;28;45320;-56
2022/12/21 04:46:17;;;;;;;;;1.00;1.00;;;;;11.21;77.66;100669.78;5053974;28;45324;-52
2022/12/21 04:48:43;;;;;;;;;2.00;1.00;;;;;11.20;77.69;100665.34;5055145;28;46228;-55
2022/12/21 04:51:12;;;;;;;;;1.00;1.00;;;;;10.94;77.69;100633.34;5032398;28;45459;-55
2022/12/21 04:53:38;;;;;;;;;1.20;0.20;;;;;11.04;77.63;100650.19;5053613;28;45457;-57
2022/12/21 04:56:04;;;;;;;;;1.00;1.00;;;;;11.16;76.99;100675.06;5054171;28;45609;-55
2022/12/21 04:58:31;;;;;;;;;0.00;0.00;;;;;11.15;77.38;100675.31;5054797;28;45588;-57
2022/12/21 05:00:57;;;;;;;;;1.00;1.00;;;;;10.69;77.57;100599.19;5055012;28;45406;-54
2022/12/21 05:03:22;;;;;;;;;1.25;1.25;;;;;10.90;77.16;100634.84;5054848;28;45372;-55
2022/12/21 05:05:48;;;;;;;;;1.00;1.00;;;;;11.13;77.29;100672.78;5055037;28;45482;-56
2022/12/21 05:08:13;;;;;;;;;1.00;1.00;;;;;11.13;76.95;100681.00;5054543;28;46615;-54
2022/12/21 05:10:39;;;;;;;;;2.00;1.00;;;;;11.12;76.77;100687.56;5054843;28;45349;-56
2022/12/21 05:13:05;;;;;;;;;1.40;1.40;;;;;11.08;77.29;100686.31;5054894;28;45249;-57
2022/12/21 05:15:30;;;;;;;;;1.00;1.00;;;;;11.07;76.69;100690.13;5054695;28;45480;-57
2022/12/21 05:17:57;;;;;;;;;1.00;1.00;;;;;11.03;77.14;100694.34;5053015;28;45963;-57
2022/12/21 05:20:22;;;;;;;;;0.20;0.20;;;;;11.05;76.94;100692.25;5054742;28;45592;-57
2022/12/21 05:22:48;;;;;;;;;1.00;1.00;;;;;11.05;76.90;100684.00;5053441;28;45709;-54
2022/12/21 05:25:13;;;;;;;;;1.75;0.50;;;;;11.04;76.91;100694.13;5054718;28;45448;-53
2022/12/21 05:27:39;;;;;;;;;0.00;0.00;;;;;10.95;76.52;100677.06;5054454;28;45509;-55
2022/12/21 05:30:05;;;;;;;;;1.00;1.00;;;;;11.00;76.49;100681.91;5054402;28;45420;-54
2022/12/21 05:32:30;;;;;;;;;1.00;1.00;;;;;10.99;76.29;100691.19;5054361;28;45355;-52
2022/12/21 05:34:56;;;;;;;;;1.00;1.00;;;;;10.96;76.00;100683.41;5054614;28;45618;-54
2022/12/21 05:37:21;;;;;;;;;0.50;0.50;;;;;10.94;76.07;100683.59;5052924;28;45484;-56
2022/12/21 05:39:47;;;;;;;;;0.00;0.00;;;;;10.61;75.26;100640.63;5054223;28;45411;-55
2022/12/21 05:42:12;;;;;;;;;1.75;1.50;;;;;10.87;75.98;100687.44;5054165;28;45434;-54
2022/12/21 05:44:38;;;;;;;;;2.50;2.00;;;;;10.84;76.23;100684.06;5054516;28;45383;-57
2022/12/21 05:47:03;;;;;;;;;2.00;1.00;;;;;10.84;75.86;100681.31;5054179;28;45887;-57
2022/12/21 05:49:29;;;;;;;;;3.00;0.00;;;;;10.82;75.86;100686.19;5054257;28;45269;-57
2022/12/21 05:51:54;;;;;;;;;1.00;1.00;;;;;10.78;75.17;100697.81;5054199;28;45162;-54
2022/12/21 05:54:20;;;;;;;;;1.50;1.00;;;;;10.77;75.85;100685.16;5054850;28;45534;-56
2022/12/21 05:56:45;;;;;;;;;3.50;2.50;;;;;10.78;76.26;100697.81;5053714;28;46259;-53
2022/12/21 05:59:11;;;;;;;;;1.00;1.00;;;;;10.66;75.88;100681.13;5054041;28;45473;-54
2022/12/21 06:01:36;;;;;;;;;1.50;0.75;;;;;10.77;76.32;100690.66;5052887;28;45379;-55
2022/12/21 06:04:02;;;;;;;;;2.00;0.75;;;;;10.75;75.94;100696.34;5052888;28;45873;-57
2022/12/21 06:06:28;;;;;;;;;1.00;1.00;;;;;10.76;75.87;100699.91;5054146;28;45950;-57
2022/12/21 06:08:53;;;;;;;;;1.25;1.00;;;;;10.71;76.20;100700.56;5056937;28;45367;-57
2022/12/21 06:11:21;;;;;;;;;2.00;2.00;;;;;10.36;75.74;100651.41;5056365;28;45465;-56
2022/12/21 06:13:47;;;;;;;;;1.20;1.00;;;;;10.54;76.37;100676.31;5057364;28;45447;-55
2022/12/21 06:16:17;;;;;;;;;1.75;1.75;;;;;10.68;76.18;100699.09;5038938;28;45510;-55
2022/12/21 06:18:43;;;;;;;;;2.00;1.60;;;;;10.47;76.05;100660.91;5057067;28;45397;-55
2022/12/21 06:21:09;;;;;;;;;2.00;1.00;;;;;10.55;76.66;100677.16;5057495;28;45590;-56
2022/12/21 06:23:35;;;;;;;;;1.80;1.80;;;;;10.63;76.11;100695.31;5055887;28;45602;-55
2022/12/21 06:26:02;;;;;;;;;2.00;2.00;;;;;10.60;76.57;100693.81;5039287;28;45352;-56
2022/12/21 06:28:28;;;;;;;;;2.80;1.60;;;;;10.57;75.60;100702.50;5055826;28;45416;-57
2022/12/21 06:30:54;;;;;;;;;2.00;2.00;;;;;10.55;76.05;100702.72;5057060;28;45309;-54
2022/12/21 06:33:20;;;;;;;;;4.00;1.00;;;;;10.56;76.27;100709.88;5057611;28;45321;-55
2022/12/21 06:35:46;;;;;;;;;2.40;1.40;;;;;10.50;76.20;100707.13;5056869;28;45417;-54
2022/12/21 06:38:11;;;;;;;;;2.50;1.25;;;;;10.51;76.05;100719.81;5056910;28;45291;-55
2022/12/21 06:40:37;;;;;;;;;0.75;0.75;;;;;10.47;76.41;100718.53;5057073;28;45440;-56
2022/12/21 06:43:02;;;;;;;;;3.00;1.00;;;;;10.43;76.24;100716.22;5055634;28;45399;-58
2022/12/21 06:45:28;;;;;;;;;1.75;1.75;;;;;10.47;76.79;100724.03;5057044;28;45767;-56
2022/12/21 06:47:54;;;;;;;;;1.00;1.00;;;;;10.47;76.81;100718.53;5056610;28;45377;-58
2022/12/21 06:50:20;;;;;;;;;2.00;2.00;;;;;10.46;76.30;100712.19;5055808;28;45341;-56
2022/12/21 06:52:49;;;;;;;;;2.00;2.00;;;;;10.39;76.60;100719.56;5056905;28;45628;-57
2022/12/21 06:55:15;;;;;;;;;2.00;2.00;;;;;10.17;77.00;100682.22;5056690;28;46680;-51
2022/12/21 06:57:41;;;;;;;;;2.60;2.40;;;;;9.84;76.75;100650.16;5056745;28;45396;-55
2022/12/21 07:00:09;;;;;;;;;1.00;1.00;;;;;10.26;77.24;100734.13;5056945;28;45340;-55
2022/12/21 07:02:35;;;;;;;;;1.80;1.80;;;;;10.20;77.09;100718.50;5055459;28;45574;-56
2022/12/21 07:05:00;;;;;;;;;3.80;3.80;;;;;10.26;77.19;100725.91;5056579;28;46146;-57
2022/12/21 07:07:26;;;;;;;;;2.25;2.25;;;;;10.24;76.89;100739.00;5056305;28;45488;-54
2022/12/21 07:09:51;;;;;;;;;3.50;2.50;;;;;10.22;75.89;100741.06;5057082;28;45387;-54
2022/12/21 07:12:17;;;;;;;;;3.75;2.75;;;;;10.17;76.20;100755.41;5055306;28;45484;-55
2022/12/21 07:14:42;;;;;;;;;2.50;2.50;;;;;10.14;76.09;100742.13;5056334;28;46390;-56
2022/12/21 07:17:08;;;;;;;;;3.75;3.75;;;;;10.03;76.59;100746.31;5056263;28;45367;-55
2022/12/21 07:19:34;;;;;;;;;4.00;4.00;;;;;10.12;76.64;100747.84;5054148;28;45443;-58
2022/12/21 07:22:00;;;;;;;;;2.80;2.80;;;;;9.96;76.64;100713.41;5056694;28;45565;-57
2022/12/21 07:24:25;;;;;;;;;3.00;3.00;;;;;10.21;76.95;100733.91;5055675;28;45508;-57
2022/12/21 07:26:51;;;;;;;;;6.00;4.00;;;;;9.60;76.23;100635.13;5056340;28;45348;-56
2022/12/21 07:29:16;;;;;;;;;4.00;4.00;;;;;10.19;76.40;100738.75;5056016;28;45419;-56
2022/12/21 07:31:42;;;;;;;;;6.25;2.25;;;;;9.99;75.87;100720.38;5056396;28;45332;-56
2022/12/21 07:34:07;;;;;;;;;3.50;3.50;;;;;9.95;75.86;100710.88;5055880;28;46448;-57
2022/12/21 07:36:33;;;;;;;;;4.50;3.00;;;;;10.17;75.58;100739.81;5055985;28;45680;-55
2022/12/21 07:38:58;;;;;;;;;5.50;5.50;;;;;9.98;76.19;100718.69;5056328;28;45778;-56
2022/12/21 07:41:24;;;;;;;;;5.25;3.75;;;;;9.92;75.81;100701.16;5055968;28;45641;-52
2022/12/21 07:43:50;;;;;;;;;7.00;4.00;;;;;10.12;75.81;100758.81;5054386;28;46061;-54
2022/12/21 07:46:16;;;;;;;;;5.25;4.00;;;;;10.13;76.72;100763.22;5054615;28;45499;-56
2022/12/21 07:48:42;;;;;;;;;6.40;4.80;;;;;10.14;76.16;100751.19;5055932;28;45462;-52
2022/12/21 07:51:07;;;;;;;;;4.75;4.00;;;;;9.89;76.06;100716.13;5022870;28;45630;-55
2022/12/21 07:53:33;;;;;;;;;5.00;5.00;;;;;10.13;75.87;100767.84;5055612;28;45462;-56
2022/12/21 07:56:00;;;;;;;;;5.00;4.00;;;;;10.10;76.34;100760.06;5056215;28;45253;-58
2022/12/21 07:58:25;;;;;;;;;4.60;3.80;;;;;10.15;76.21;100771.25;5055333;28;45373;-57
2022/12/21 08:00:51;;;;;;;;;5.25;5.25;;;;;10.14;76.57;100778.63;5054714;28;45419;-58
2022/12/21 08:03:17;;;;;;;;;6.40;5.80;;;;;9.90;76.16;100739.78;5055458;28;45390;-58
2022/12/21 08:05:43;;;;;;;;;7.50;6.75;;;;;9.96;76.11;100740.84;5054092;28;45387;-59
2022/12/21 08:08:08;;;;;;;;;6.00;6.00;;;;;10.19;76.30;100771.69;5055815;28;45373;-59
2022/12/21 08:10:34;;;;;;;;;3.75;3.75;;;;;10.06;75.97;100754.16;5055693;28;45304;-59
2022/12/21 08:12:59;;;;;;;;;6.25;4.50;;;;;10.24;75.86;100771.91;5054063;28;46661;-58
2022/12/21 08:15:25;;;;;;;;;7.75;4.00;;;;;10.26;76.25;100775.28;5055460;28;45312;-60
2022/12/21 08:17:53;;;;;;;;;5.75;4.50;;;;;10.27;75.87;100776.97;5055255;28;45425;-59
2022/12/21 08:20:19;;;;;;;;;9.00;4.40;;;;;10.27;75.80;100769.59;5055885;28;45580;-56
2022/12/21 08:22:45;;;;;;;;;5.25;5.25;;;;;10.26;76.05;100758.81;5053699;28;46124;-57
2022/12/21 08:25:10;;;;;;;;;6.50;4.50;;;;;10.34;75.86;100776.97;5055127;28;45201;-57
2022/12/21 08:27:36;;;;;;;;;7.00;4.50;;;;;10.37;75.14;100773.81;5055390;28;45730;-58
2022/12/21 08:30:01;;;;;;;;;4.00;4.00;;;;;10.40;75.83;100766.00;5055254;28;45586;-59
2022/12/21 08:32:27;;;;;;;;;8.25;4.25;;;;;10.44;75.29;100775.53;5053917;28;46935;-60
2022/12/21 08:34:52;;;;;;;;;4.00;4.00;;;;;10.46;75.12;100761.59;5054977;28;45540;-60
2022/12/21 08:37:18;;;;;;;;;4.75;4.75;;;;;10.48;74.42;100748.53;5055727;28;45325;-60
2022/12/21 08:39:43;;;;;;;;;5.75;4.00;;;;;10.58;74.55;100748.09;5055008;28;45535;-58
2022/12/21 08:42:09;;;;;;;;;4.00;4.00;;;;;10.61;75.06;100764.13;5052941;28;47303;-57
2022/12/21 08:44:34;;;;;;;;;2.75;2.75;;;;;10.64;74.43;100769.22;5054220;28;45453;-50
2022/12/21 08:47:00;;;;;;;;;4.00;4.00;;;;;10.68;74.39;100777.84;5054996;28;45435;-55
2022/12/21 08:49:25;;;;;;;;;7.25;4.00;;;;;10.44;73.73;100739.00;5055271;28;45370;-56
2022/12/21 08:51:50;;;;;;;;;7.00;4.00;;;;;10.69;74.49;100776.81;5031005;28;46158;-54
2022/12/21 08:54:16;;;;;;;;;2.75;2.75;;;;;10.68;74.45;100786.09;5053130;28;45437;-58
2022/12/21 08:56:42;;;;;;;;;3.00;2.00;;;;;10.71;73.93;100782.91;5053516;28;45297;-60
2022/12/21 08:59:08;;;;;;;;;3.00;3.00;;;;;10.62;73.34;100779.53;5055099;28;45393;-59
2022/12/21 09:01:33;;;;;;;;;3.20;3.20;;;;;10.63;74.07;100770.28;5053411;28;47434;-60
2022/12/21 09:03:59;;;;;;;;;4.25;3.00;;;;;10.67;74.51;100754.22;5054674;28;45368;-58
2022/12/21 09:06:25;;;;;;;;;4.00;4.00;;;;;10.68;74.17;100758.66;5055043;28;45364;-57
2022/12/21 09:08:50;;;;;;;;;3.00;3.00;;;;;10.71;73.68;100753.56;5054916;28;45331;-56
2022/12/21 09:11:17;;;;;;;;;5.50;3.50;;;;;10.80;73.94;100756.09;5054779;28;45668;-56
2022/12/21 09:13:42;;;;;;;;;3.00;3.00;;;;;10.85;73.72;100761.78;5052956;28;45579;-54
2022/12/21 09:16:16;;;;;;;;;3.25;3.25;;;;;10.67;74.12;100735.81;5053498;28;45336;-57
2022/12/21 09:18:41;;;;;;;;;3.40;3.00;;;;;10.92;73.84;100762.63;5053709;28;45332;-58
2022/12/21 09:21:07;;;;;;;;;2.00;2.00;;;;;11.00;73.65;100768.94;5053423;28;45577;-56
2022/12/21 09:23:33;;;;;;;;;7.25;2.00;;;;;10.79;73.82;100725.03;5054184;28;45370;-53
2022/12/21 09:25:59;;;;;;;;;4.75;3.75;;;;;11.03;73.92;100761.13;5054634;28;45331;-58
2022/12/21 09:28:24;;;;;;;;;2.40;2.40;;;;;10.99;73.49;100765.34;5032992;28;45432;-55
2022/12/21 09:30:50;;;;;;;;;5.75;4.00;;;;;10.97;74.21;100762.84;5039168;28;45565;-57
2022/12/21 09:33:15;;;;;;;;;3.75;2.75;;;;;10.97;74.36;100759.22;5052899;28;45349;-58
2022/12/21 09:35:41;;;;;;;;;8.25;4.25;;;;;10.89;74.19;100749.31;5053561;28;45412;-58
2022/12/21 09:38:06;;;;;;;;;4.50;3.25;;;;;10.66;73.98;100741.53;5053199;28;45501;-59
2022/12/21 09:40:32;;;;;;;;;3.75;3.75;;;;;10.87;74.60;100795.38;5052945;28;45352;-58
2022/12/21 09:43:16;;;;;;;;;8.00;4.00;;;;;10.88;74.16;100786.06;5054500;28;45396;-57
2022/12/21 09:46:06;;;;;;;;;5.80;5.40;;;;;10.64;74.72;100751.88;5052438;28;45465;-58
2022/12/21 09:48:39;;;;;;;;;4.00;4.00;;;;;10.82;74.26;100782.28;5039309;28;45627;-56
2022/12/21 09:51:09;;;;;;;;;7.40;7.00;;;;;10.79;74.50;100784.59;5055005;28;47395;-55
2022/12/21 09:53:37;;;;;;;;;8.40;5.00;;;;;10.83;74.83;100800.44;5022621;28;45391;-58
2022/12/21 09:56:03;;;;;;;;;4.00;4.00;;;;;10.83;75.24;100797.69;5055454;27;45382;-57
2022/12/21 09:58:50;;;;;;;;;5.25;4.00;;;;;10.79;74.69;100788.19;5020863;28;46294;-56
2022/12/21 10:01:16;;;;;;;;;5.80;4.40;;;;;10.87;74.68;100795.38;5031568;28;47257;-56
2022/12/21 10:03:57;;;;;;;;;6.80;3.60;;;;;10.76;74.65;100766.66;5041762;28;45707;-58
2022/12/21 10:06:34;;;;;;;;;6.20;5.80;;;;;10.92;74.49;100790.09;5056000;28;45415;-57
2022/12/21 10:09:11;;;;;;;;;7.60;4.00;;;;;10.78;74.58;100769.19;5056258;28;45674;-56
2022/12/21 10:11:46;;;;;;;;;10.40;8.00;;;;;10.92;74.73;100787.34;5055896;28;46219;-58
2022/12/21 10:14:29;;;;;;;;;4.00;3.00;;;;;10.94;74.63;100800.88;5038246;28;45410;-53
2022/12/21 10:17:00;;;;;;;;;3.40;3.40;;;;;10.93;74.76;100793.66;5055368;28;45401;-53
2022/12/21 10:19:38;;;;;;;;;2.60;1.40;;;;;10.88;74.93;100794.31;5056044;28;45712;-55
2022/12/21 10:22:16;;;;;;;;;2.60;2.60;;;;;10.87;74.65;100781.63;5054390;28;46578;-57
2022/12/21 10:24:46;;;;;;;;;2.20;2.20;;;;;10.69;75.00;100743.84;5035135;28;45409;-58
2022/12/21 10:27:25;;;;;;;;;3.40;2.80;;;;;10.91;74.37;100769.19;5040545;28;45456;-57
2022/12/21 10:29:53;;;;;;;;;6.80;4.60;;;;;11.00;74.88;100774.44;5036320;28;45647;-59
2022/12/21 10:32:18;;;;;;;;;4.20;3.40;;;;;11.01;74.98;100776.97;5053744;28;45375;-56
2022/12/21 10:34:47;;;;;;;;;4.00;4.00;;;;;10.98;74.56;100764.50;5036607;28;45397;-59
2022/12/21 10:37:18;;;;;;;;;3.80;3.80;;;;;10.84;74.57;100751.88;5054492;28;45464;-57
2022/12/21 10:39:44;;;;;;;;;2.40;1.80;;;;;11.02;74.99;100769.56;5054846;28;46354;-55
2022/12/21 10:42:19;;;;;;;;;8.60;6.00;;;;;11.02;74.55;100764.94;5054080;28;45981;-59
2022/12/21 10:44:45;;;;;;;;;9.20;6.60;;;;;11.00;74.67;100767.06;5052774;28;45778;-57
2022/12/21 10:47:14;;;;;;;;;3.00;3.00;;;;;10.98;75.02;100747.19;5054500;28;45784;-58
2022/12/21 10:49:40;;;;;;;;;4.60;4.00;;;;;10.96;75.25;100744.66;5036472;28;45465;-58
2022/12/21 10:52:38;;;;;;;;;4.00;3.00;;;;;11.02;74.88;100748.44;5053063;28;46375;-56
2022/12/21 10:55:05;;;;;;;;;5.00;3.60;;;;;11.04;75.25;100740.00;5051737;28;45438;-59
2022/12/21 10:57:33;;;;;;;;;5.20;4.80;;;;;10.95;74.71;100714.66;5052806;28;45435;-59
2022/12/21 11:00:23;;;;;;;;;4.60;4.60;;;;;11.02;75.39;100731.13;5053259;28;45467;-58
2022/12/21 11:02:50;;;;;;;;;7.20;5.00;;;;;11.05;74.95;100716.97;5023000;28;45919;-60
2022/12/21 11:05:26;;;;;;;;;8.00;8.00;;;;;11.05;75.09;100715.06;5069095;28;45888;-58
2022/12/21 11:07:52;;;;;;;;;8.20;4.60;;;;;11.08;75.18;100709.13;5048940;28;45859;-58
2022/12/21 11:10:28;;;;;;;;;10.00;8.00;;;;;11.11;74.85;100711.44;5052950;28;45899;-59
2022/12/21 11:12:53;;;;;;;;;4.80;4.80;;;;;11.14;74.69;100701.94;5052292;28;45511;-58
2022/12/21 11:15:21;;;;;;;;;7.75;5.50;;;;;10.67;74.74;100626.03;5052260;28;45380;-56
2022/12/21 11:17:46;;;;;;;;;8.00;8.00;;;;;11.22;74.41;100692.59;5033913;28;45477;-56
2022/12/21 11:20:16;;;;;;;;;8.75;5.00;;;;;11.33;74.08;100697.44;5045226;28;45522;-58
2022/12/21 11:22:43;;;;;;;;;8.00;6.20;;;;;11.29;74.50;100681.56;5053329;28;46572;-57
2022/12/21 11:25:21;;;;;;;;;9.60;9.00;;;;;11.39;74.55;100690.22;5031969;28;45857;-54
2022/12/21 11:27:49;;;;;;;;;5.00;5.00;;;;;11.31;74.03;100688.53;5032840;28;45687;-57
2022/12/21 11:30:28;;;;;;;;;5.80;5.80;;;;;11.32;74.23;100698.47;5032347;27;45509;-57
2022/12/21 11:32:55;;;;;;;;;6.20;6.20;;;;;11.36;74.26;100694.22;5035451;28;45915;-58
2022/12/21 11:35:22;;;;;;;;;10.00;9.00;;;;;11.43;74.08;100691.47;5052841;28;45790;-58
2022/12/21 11:37:55;;;;;;;;;12.60;9.60;;;;;11.50;73.78;100678.53;5052643;28;45604;-52
2022/12/21 11:40:22;;;;;;;;;9.00;7.80;;;;;11.59;74.04;100689.25;5050966;28;45441;-57
2022/12/21 11:42:55;;;;;;;;;5.00;4.00;;;;;11.34;73.53;100629.56;5052841;28;45457;-52
2022/12/21 11:45:23;;;;;;;;;7.40;6.60;;;;;11.55;73.54;100664.13;5052897;28;45812;-53
2022/12/21 11:47:58;;;;;;;;;10.20;5.00;;;;;11.27;73.58;100631.50;5052078;28;45347;-53